Time;durP1;ratioP1;P1;durP2;ratioP2;P2;SDS_P1;SDS_P2;PMS_P1;PMS_P2;Temp;Humidity;BMP_temperature;BMP_pressure;BME280_temperature;BME280_humidity;BME280_pressure;Samples;Min_cycle;Max_cycle;Signal;HPM_P1;HPM_P2
2023/12/31 00:04:10;;;;;;;;;;;;;;;3.14;100.00;95326.72;10595158;27;2029;-66
2023/12/31 00:09:17;;;;;;;;;;;;;;;3.13;100.00;95309.16;10596127;27;2004;-64
2023/12/31 00:14:22;;;;;;;;;;;;;;;3.02;100.00;95305.50;10591157;27;1948;-64
2023/12/31 00:19:26;;;;;;;;;;;;;;;2.91;100.00;95311.66;10593034;27;1940;-66
2023/12/31 00:24:32;;;;;;;;;;;;;;;2.83;100.00;95306.75;10579361;27;2021;-64
2023/12/31 00:29:35;;;;;;;;;;;;;;;2.70;100.00;95299.84;10579282;27;2075;-63
2023/12/31 00:34:43;;;;;;;;;;;;;;;2.65;100.00;95289.94;10594735;27;2031;-63
2023/12/31 00:39:47;;;;;;;;;;;;;;;2.51;100.00;95291.25;10562793;27;1975;-65
2023/12/31 00:44:51;;;;;;;;;;;;;;;2.42;100.00;95293.47;10587071;27;2016;-64
2023/12/31 00:49:54;;;;;;;;;;;;;;;2.31;100.00;95294.31;10594634;27;1937;-64
2023/12/31 00:55:00;;;;;;;;;;;;;;;2.23;100.00;95284.06;10594167;27;2157;-65
2023/12/31 01:00:05;;;;;;;;;;;;;;;2.12;100.00;95285.69;10579431;27;1996;-65
2023/12/31 01:05:10;;;;;;;;;;;;;;;2.10;100.00;95279.81;10591071;27;1968;-65
2023/12/31 01:10:16;;;;;;;;;;;;;;;2.11;100.00;95286.72;10595855;27;2075;-63
2023/12/31 01:15:19;;;;;;;;;;;;;;;2.16;100.00;95278.88;10581211;27;2135;-64
2023/12/31 01:20:25;;;;;;;;;;;;;;;2.20;100.00;95273.09;10601379;27;1948;-63
2023/12/31 01:25:28;;;;;;;;;;;;;;;2.14;100.00;95257.06;10596705;27;2120;-63
2023/12/31 01:30:33;;;;;;;;;;;;;;;2.14;100.00;95251.78;10602829;27;1962;-68
2023/12/31 01:35:37;;;;;;;;;;;;;;;2.03;100.00;95249.94;10584203;27;1906;-66
2023/12/31 01:40:42;;;;;;;;;;;;;;;2.08;100.00;95239.44;10589764;27;1939;-64
2023/12/31 01:45:45;;;;;;;;;;;;;;;2.04;100.00;95232.22;10586163;27;2013;-65
2023/12/31 01:50:53;;;;;;;;;;;;;;;2.06;100.00;95220.31;10603139;27;2227;-65
2023/12/31 01:55:56;;;;;;;;;;;;;;;2.00;100.00;95221.25;10581406;27;2264;-65
2023/12/31 02:01:00;;;;;;;;;;;;;;;2.06;100.00;95225.63;10577427;27;2151;-72
2023/12/31 02:06:04;;;;;;;;;;;;;;;1.97;100.00;95211.09;10577594;27;2149;-64
2023/12/31 02:11:07;;;;;;;;;;;;;;;2.10;100.00;95210.88;10593070;27;2180;-65
2023/12/31 02:16:09;;;;;;;;;;;;;;;2.16;100.00;95199.34;10596094;27;2038;-64
2023/12/31 02:21:14;;;;;;;;;;;;;;;2.21;100.00;95195.97;10588565;27;2067;-63
2023/12/31 02:26:21;;;;;;;;;;;;;;;2.19;100.00;95181.34;10607823;27;2107;-63
2023/12/31 02:31:24;;;;;;;;;;;;;;;2.12;100.00;95176.16;10596294;27;2086;-64
2023/12/31 02:36:29;;;;;;;;;;;;;;;1.99;100.00;95176.44;10588389;27;2102;-64
2023/12/31 02:41:34;;;;;;;;;;;;;;;1.87;100.00;95168.50;10589357;27;2122;-64
2023/12/31 02:46:40;;;;;;;;;;;;;;;1.85;100.00;95162.63;10601501;27;2390;-64
2023/12/31 02:51:46;;;;;;;;;;;;;;;1.78;100.00;95154.00;10599322;27;2118;-63
2023/12/31 02:56:49;;;;;;;;;;;;;;;1.69;100.00;95148.25;10596933;27;1980;-64
2023/12/31 03:01:58;;;;;;;;;;;;;;;1.56;100.00;95144.00;10605820;27;1942;-64
2023/12/31 03:07:01;;;;;;;;;;;;;;;1.49;100.00;95138.03;10602601;27;2350;-64
2023/12/31 03:12:06;;;;;;;;;;;;;;;1.44;100.00;95135.28;10595823;27;2091;-65
2023/12/31 03:17:09;;;;;;;;;;;;;;;1.44;100.00;95119.38;10599184;27;2082;-64
2023/12/31 03:22:13;;;;;;;;;;;;;;;1.42;100.00;95113.50;10603390;27;2059;-63
2023/12/31 03:27:36;;;;;;;;;;;;;;;1.37;100.00;95105.47;10598314;27;1960;-65
2023/12/31 03:32:40;;;;;;;;;;;;;;;1.42;100.00;95108.22;10587159;27;1971;-64
2023/12/31 03:37:50;;;;;;;;;;;;;;;1.47;100.00;95091.63;10579790;27;2118;-64
2023/12/31 03:42:54;;;;;;;;;;;;;;;1.43;100.00;95087.84;10580932;27;1998;-64
2023/12/31 03:48:01;;;;;;;;;;;;;;;1.43;100.00;95083.34;10590866;27;2066;-66
2023/12/31 03:53:06;;;;;;;;;;;;;;;1.46;100.00;95074.13;10594501;27;2067;-66
2023/12/31 03:58:09;;;;;;;;;;;;;;;1.41;100.00;95080.13;10586690;27;2060;-64
2023/12/31 04:03:14;;;;;;;;;;;;;;;1.34;100.00;95074.97;10599560;27;2067;-65
2023/12/31 04:08:17;;;;;;;;;;;;;;;1.18;100.00;95067.72;10598431;27;1944;-64
2023/12/31 04:13:21;;;;;;;;;;;;;;;1.12;100.00;95073.94;10581964;27;1992;-63
2023/12/31 04:18:25;;;;;;;;;;;;;;;1.06;100.00;95062.44;10586066;27;1982;-64
2023/12/31 04:23:33;;;;;;;;;;;;;;;1.15;100.00;95059.44;10585397;27;2053;-65
2023/12/31 04:28:37;;;;;;;;;;;;;;;1.10;100.00;95057.50;10596555;27;2061;-64
2023/12/31 04:33:48;;;;;;;;;;;;;;;1.18;100.00;95053.69;10611278;27;1911;-64
2023/12/31 04:38:52;;;;;;;;;;;;;;;1.27;100.00;95036.38;10581861;27;2119;-64
2023/12/31 04:43:56;;;;;;;;;;;;;;;1.28;100.00;95022.94;10578382;27;2330;-64
2023/12/31 04:49:04;;;;;;;;;;;;;;;1.26;100.00;95019.69;10589226;27;2090;-64
2023/12/31 04:54:14;;;;;;;;;;;;;;;1.31;100.00;95006.56;10603412;27;1982;-67
2023/12/31 04:59:26;;;;;;;;;;;;;;;1.27;100.00;94986.09;10606882;27;1989;-65
2023/12/31 05:04:30;;;;;;;;;;;;;;;1.27;100.00;94972.84;10603253;27;2186;-65
2023/12/31 05:09:35;;;;;;;;;;;;;;;1.13;100.00;94976.81;10600864;27;2097;-67
2023/12/31 05:14:41;;;;;;;;;;;;;;;1.14;100.00;94965.16;10602795;27;2204;-63
2023/12/31 05:19:45;;;;;;;;;;;;;;;1.23;100.00;94974.38;10607582;27;2091;-63
2023/12/31 05:24:52;;;;;;;;;;;;;;;1.29;100.00;94966.28;10588294;27;2213;-65
2023/12/31 05:29:57;;;;;;;;;;;;;;;1.18;100.00;94955.72;10602807;27;2130;-65
2023/12/31 05:35:01;;;;;;;;;;;;;;;1.19;100.00;94954.69;10600850;27;1897;-64
2023/12/31 05:45:21;;;;;;;;;;;;;;;1.23;100.00;94956.63;10589593;27;1960;-63
2023/12/31 05:50:26;;;;;;;;;;;;;;;1.15;100.00;94945.63;10608080;27;2086;-63
2023/12/31 05:55:29;;;;;;;;;;;;;;;1.14;100.00;94941.34;10602546;27;2048;-65
2023/12/31 06:00:32;;;;;;;;;;;;;;;1.08;100.00;94946.56;10597511;27;2200;-65
2023/12/31 06:05:35;;;;;;;;;;;;;;;1.06;100.00;94945.16;10606045;27;2001;-63
2023/12/31 06:10:40;;;;;;;;;;;;;;;1.08;100.00;94932.50;10599797;27;1944;-65
2023/12/31 06:15:50;;;;;;;;;;;;;;;1.14;100.00;94936.84;10602988;27;2027;-65
2023/12/31 06:20:54;;;;;;;;;;;;;;;1.27;100.00;94926.03;10580027;27;1961;-65
2023/12/31 06:26:04;;;;;;;;;;;;;;;1.22;100.00;94927.75;10603093;27;2059;-64
2023/12/31 06:31:24;;;;;;;;;;;;;;;1.25;100.00;94919.34;10601362;27;2055;-64
2023/12/31 06:36:32;;;;;;;;;;;;;;;1.22;100.00;94911.88;10597963;27;1932;-64
2023/12/31 06:41:37;;;;;;;;;;;;;;;1.35;100.00;94901.00;10596948;27;2120;-65
2023/12/31 06:46:41;;;;;;;;;;;;;;;1.33;100.00;94900.41;10597153;27;2023;-64
2023/12/31 06:51:44;;;;;;;;;;;;;;;1.46;100.00;94892.19;10602890;27;2027;-72
2023/12/31 06:56:47;;;;;;;;;;;;;;;1.49;100.00;94902.31;10593857;27;2267;-71
2023/12/31 07:01:52;;;;;;;;;;;;;;;1.54;100.00;94878.56;10596295;27;2083;-72
2023/12/31 07:06:56;;;;;;;;;;;;;;;1.59;100.00;94857.47;10584335;27;2019;-64
2023/12/31 07:12:01;;;;;;;;;;;;;;;1.60;100.00;94856.41;10592342;27;1915;-64
2023/12/31 07:17:05;;;;;;;;;;;;;;;1.72;100.00;94839.63;10595417;27;2075;-65
2023/12/31 07:22:09;;;;;;;;;;;;;;;1.78;100.00;94826.25;10583978;27;2065;-64
2023/12/31 07:27:12;;;;;;;;;;;;;;;1.92;100.00;94826.72;10592117;27;2059;-64
2023/12/31 07:32:23;;;;;;;;;;;;;;;1.98;100.00;94820.44;10593166;27;2059;-65
2023/12/31 07:37:26;;;;;;;;;;;;;;;2.12;100.00;94815.59;10595964;27;1914;-64
2023/12/31 07:42:29;;;;;;;;;;;;;;;2.15;100.00;94804.50;10613761;27;2188;-64
2023/12/31 07:47:35;;;;;;;;;;;;;;;2.36;100.00;94805.59;10596209;27;1991;-64
2023/12/31 07:52:39;;;;;;;;;;;;;;;2.55;100.00;94809.53;10599981;27;2015;-65
2023/12/31 07:57:42;;;;;;;;;;;;;;;2.67;100.00;94823.50;10597689;27;2059;-64
2023/12/31 08:02:51;;;;;;;;;;;;;;;2.79;100.00;94823.34;10576412;27;1978;-63
2023/12/31 08:07:55;;;;;;;;;;;;;;;2.90;100.00;94821.63;10616362;27;2130;-64
2023/12/31 08:12:58;;;;;;;;;;;;;;;2.94;100.00;94828.03;10594282;27;2011;-64
2023/12/31 08:18:02;;;;;;;;;;;;;;;3.07;100.00;94829.50;10588577;27;1995;-64
2023/12/31 08:23:09;;;;;;;;;;;;;;;3.24;100.00;94823.06;10593739;27;2149;-64
2023/12/31 08:28:13;;;;;;;;;;;;;;;3.35;100.00;94821.28;10598755;27;2046;-64
2023/12/31 08:33:16;;;;;;;;;;;;;;;3.53;100.00;94831.53;10587380;27;2025;-64
2023/12/31 08:38:20;;;;;;;;;;;;;;;3.70;100.00;94823.47;10608511;27;1977;-63
2023/12/31 08:43:23;;;;;;;;;;;;;;;3.95;100.00;94833.50;10599720;27;1910;-66
2023/12/31 08:48:30;;;;;;;;;;;;;;;4.20;100.00;94826.72;10595173;27;8798;-63
2023/12/31 08:53:37;;;;;;;;;;;;;;;4.45;100.00;94834.06;10600381;27;5386;-64
2023/12/31 08:58:43;;;;;;;;;;;;;;;4.81;100.00;94827.06;10599287;27;5482;-64
2023/12/31 09:03:47;;;;;;;;;;;;;;;5.07;100.00;94826.09;10607724;27;2060;-66
2023/12/31 09:08:51;;;;;;;;;;;;;;;5.37;100.00;94821.91;10598250;27;5347;-64
2023/12/31 09:13:53;;;;;;;;;;;;;;;5.69;100.00;94811.00;10604926;27;2065;-64
2023/12/31 09:18:58;;;;;;;;;;;;;;;5.85;100.00;94812.63;10603670;27;2054;-64
2023/12/31 09:24:04;;;;;;;;;;;;;;;6.10;100.00;94819.03;10600409;27;5152;-66
2023/12/31 09:29:07;;;;;;;;;;;;;;;6.33;100.00;94810.47;10587846;27;1940;-65
2023/12/31 09:34:15;;;;;;;;;;;;;;;6.47;100.00;94816.81;10606141;27;2378;-65
2023/12/31 09:39:19;;;;;;;;;;;;;;;6.49;100.00;94820.03;10598848;27;2005;-64
2023/12/31 09:44:22;;;;;;;;;;;;;;;6.69;100.00;94818.38;10599114;27;2064;-64
2023/12/31 09:49:25;;;;;;;;;;;;;;;6.77;100.00;94818.63;10581311;27;1932;-63
2023/12/31 09:54:32;;;;;;;;;;;;;;;6.77;100.00;94818.63;10599341;27;2074;-69
2023/12/31 09:59:35;;;;;;;;;;;;;;;6.73;100.00;94819.41;10593888;27;7806;-68
2023/12/31 10:04:38;;;;;;;;;;;;;;;6.90;100.00;94809.22;10598691;27;2150;-68
2023/12/31 10:09:45;;;;;;;;;;;;;;;6.70;100.00;94806.63;10598892;27;1977;-68
2023/12/31 10:14:53;;;;;;;;;;;;;;;6.83;100.00;94810.59;10598904;27;2066;-65
2023/12/31 10:19:58;;;;;;;;;;;;;;;7.07;100.00;94808.09;10599125;27;1996;-68
2023/12/31 10:25:06;;;;;;;;;;;;;;;7.22;100.00;94808.00;10599560;27;2075;-66
2023/12/31 10:30:20;;;;;;;;;;;;;;;7.41;100.00;94826.88;10605816;27;2110;-65
2023/12/31 10:35:28;;;;;;;;;;;;;;;7.36;100.00;94846.41;10619502;27;2035;-65
2023/12/31 10:40:46;;;;;;;;;;;;;;;7.01;100.00;94861.53;10599309;27;2071;-64
2023/12/31 10:45:50;;;;;;;;;;;;;;;7.02;100.00;94828.41;10599838;27;2042;-66
2023/12/31 10:50:54;;;;;;;;;;;;;;;7.05;100.00;94829.72;10599634;27;2090;-63
2023/12/31 10:55:58;;;;;;;;;;;;;;;7.36;100.00;94818.88;10582256;27;6378;-68
2023/12/31 11:01:04;;;;;;;;;;;;;;;7.22;100.00;94814.13;10577744;27;2395;-65
2023/12/31 11:06:12;;;;;;;;;;;;;;;7.69;100.00;94780.66;10588747;27;2073;-65
2023/12/31 11:11:19;;;;;;;;;;;;;;;7.65;100.00;94763.59;10595916;27;2032;-64
2023/12/31 11:16:23;;;;;;;;;;;;;;;8.17;100.00;94764.75;10595959;27;1960;-64
2023/12/31 11:21:28;;;;;;;;;;;;;;;8.32;100.00;94761.13;10579581;27;2005;-64
2023/12/31 11:26:32;;;;;;;;;;;;;;;8.50;100.00;94740.88;10614484;27;2160;-63
2023/12/31 11:31:41;;;;;;;;;;;;;;;8.71;100.00;94747.56;10598278;27;1887;-65
2023/12/31 11:36:45;;;;;;;;;;;;;;;8.90;100.00;94739.56;10592856;27;2079;-64
2023/12/31 11:41:49;;;;;;;;;;;;;;;8.82;100.00;94729.50;10583585;27;2655;-65
2023/12/31 11:46:54;;;;;;;;;;;;;;;8.66;100.00;94712.84;10593163;27;2114;-64
2023/12/31 11:51:58;;;;;;;;;;;;;;;8.95;100.00;94696.63;10582670;27;2006;-66
2023/12/31 11:57:03;;;;;;;;;;;;;;;8.91;100.00;94684.91;10592158;27;4964;-64
2023/12/31 12:02:07;;;;;;;;;;;;;;;9.11;100.00;94679.25;10603182;27;1995;-69
2023/12/31 12:07:13;;;;;;;;;;;;;;;9.10;98.45;94658.91;10592795;27;2039;-67
2023/12/31 12:12:17;;;;;;;;;;;;;;;8.97;99.32;94645.41;10581299;27;2018;-64
2023/12/31 12:17:28;;;;;;;;;;;;;;;8.99;100.00;94644.06;10600809;27;1925;-70
2023/12/31 12:22:31;;;;;;;;;;;;;;;9.07;100.00;94627.31;10596102;27;2351;-71
2023/12/31 12:27:35;;;;;;;;;;;;;;;9.05;100.00;94623.31;10607309;27;2021;-70
2023/12/31 12:32:38;;;;;;;;;;;;;;;9.11;100.00;94622.97;10595428;27;2043;-68
2023/12/31 12:37:41;;;;;;;;;;;;;;;9.16;100.00;94609.47;10591047;27;1918;-65
2023/12/31 12:42:50;;;;;;;;;;;;;;;9.16;100.00;94598.75;10603449;27;1976;-64
2023/12/31 12:47:58;;;;;;;;;;;;;;;9.21;100.00;94606.69;10596872;27;1917;-66
2023/12/31 12:53:04;;;;;;;;;;;;;;;9.27;100.00;94628.84;10593647;27;1944;-64
2023/12/31 12:58:11;;;;;;;;;;;;;;;9.27;100.00;94617.34;10603001;27;5116;-64
2023/12/31 13:03:16;;;;;;;;;;;;;;;9.27;100.00;94607.41;10598913;27;1897;-67
2023/12/31 13:08:23;;;;;;;;;;;;;;;9.32;100.00;94593.91;10586976;27;2059;-65
2023/12/31 13:13:30;;;;;;;;;;;;;;;9.30;100.00;94587.28;10604223;27;1878;-64
2023/12/31 13:18:37;;;;;;;;;;;;;;;9.40;100.00;94577.16;10601137;27;2082;-65
2023/12/31 13:23:43;;;;;;;;;;;;;;;9.37;100.00;94576.97;10593138;27;2273;-64
2023/12/31 13:28:47;;;;;;;;;;;;;;;9.36;100.00;94568.13;10606271;27;2044;-64
2023/12/31 13:33:50;;;;;;;;;;;;;;;9.40;100.00;94565.63;10599300;27;2146;-65
2023/12/31 13:38:54;;;;;;;;;;;;;;;9.31;100.00;94554.78;10598495;27;2079;-65
2023/12/31 13:44:02;;;;;;;;;;;;;;;9.34;100.00;94548.03;10602856;27;2027;-65
2023/12/31 13:49:07;;;;;;;;;;;;;;;9.38;100.00;94532.94;10607414;27;2272;-74
2023/12/31 13:54:11;;;;;;;;;;;;;;;9.58;100.00;94513.78;10606137;27;2254;-70
2023/12/31 13:59:16;;;;;;;;;;;;;;;9.56;100.00;94521.34;10591573;27;5028;-65
2023/12/31 14:04:20;;;;;;;;;;;;;;;9.66;100.00;94507.72;10600815;27;1878;-65
2023/12/31 14:09:26;;;;;;;;;;;;;;;9.69;100.00;94506.34;10603128;27;2022;-65
2023/12/31 14:14:37;;;;;;;;;;;;;;;9.60;100.00;94506.22;10602739;27;1921;-66
2023/12/31 14:19:39;;;;;;;;;;;;;;;9.44;100.00;94503.06;10601897;27;1926;-65
2023/12/31 14:24:42;;;;;;;;;;;;;;;9.25;100.00;94501.53;10589115;27;2311;-64
2023/12/31 14:29:45;;;;;;;;;;;;;;;9.12;100.00;94506.59;10602554;27;2089;-64
2023/12/31 14:34:49;;;;;;;;;;;;;;;9.11;100.00;94520.28;10599074;27;1960;-66
2023/12/31 14:39:57;;;;;;;;;;;;;;;9.25;100.00;94560.53;10583721;27;2053;-65
2023/12/31 14:45:03;;;;;;;;;;;;;;;8.68;100.00;94602.69;10603119;27;2265;-64
2023/12/31 14:50:07;;;;;;;;;;;;;;;8.07;100.00;94615.75;10587076;27;2284;-63
2023/12/31 14:55:14;;;;;;;;;;;;;;;7.85;100.00;94631.53;10599363;27;2051;-65
2023/12/31 15:00:19;;;;;;;;;;;;;;;7.87;100.00;94642.75;10593094;27;5171;-65
2023/12/31 15:05:22;;;;;;;;;;;;;;;7.97;100.00;94650.66;10598907;27;2075;-65
2023/12/31 15:10:28;;;;;;;;;;;;;;;8.01;100.00;94640.97;10611912;27;2015;-65
2023/12/31 15:15:32;;;;;;;;;;;;;;;8.02;100.00;94669.34;10598233;27;1920;-66
2023/12/31 15:20:41;;;;;;;;;;;;;;;8.05;100.00;94676.81;10596686;27;2083;-64
2023/12/31 15:25:50;;;;;;;;;;;;;;;8.01;100.00;94694.50;10587502;27;2181;-66
2023/12/31 15:30:56;;;;;;;;;;;;;;;7.98;100.00;94681.69;10591762;27;1959;-68
2023/12/31 15:36:03;;;;;;;;;;;;;;;7.78;100.00;94695.28;10596018;27;2146;-66
2023/12/31 15:41:06;;;;;;;;;;;;;;;7.65;100.00;94693.25;10581426;27;2552;-64
2023/12/31 15:46:10;;;;;;;;;;;;;;;7.50;100.00;94703.00;10609477;27;2075;-65
2023/12/31 15:51:13;;;;;;;;;;;;;;;7.46;100.00;94706.53;10602219;27;2039;-64
2023/12/31 15:56:18;;;;;;;;;;;;;;;7.43;100.00;94715.88;10599610;27;4968;-65
2023/12/31 16:01:23;;;;;;;;;;;;;;;7.40;100.00;94719.13;10608169;27;2078;-64
2023/12/31 16:06:27;;;;;;;;;;;;;;;7.35;100.00;94750.44;10594112;27;2082;-64
2023/12/31 16:11:30;;;;;;;;;;;;;;;7.33;100.00;94750.72;10591694;27;1983;-64
2023/12/31 16:16:36;;;;;;;;;;;;;;;7.19;100.00;94776.47;10596802;27;1944;-64
2023/12/31 16:21:44;;;;;;;;;;;;;;;7.12;100.00;94781.31;10600563;27;2551;-65
2023/12/31 16:26:47;;;;;;;;;;;;;;;6.91;100.00;94794.78;10588515;27;1929;-68
2023/12/31 16:31:51;;;;;;;;;;;;;;;6.64;100.00;94805.03;10603631;27;1932;-64
2023/12/31 16:36:58;;;;;;;;;;;;;;;6.35;100.00;94827.00;10594639;27;2342;-65
2023/12/31 16:42:01;;;;;;;;;;;;;;;6.11;100.00;94840.13;10576711;27;1950;-63
2023/12/31 16:47:04;;;;;;;;;;;;;;;5.92;100.00;94852.41;10577706;27;1989;-65
2023/12/31 16:52:09;;;;;;;;;;;;;;;5.84;100.00;94856.34;10602824;27;2127;-64
2023/12/31 16:57:18;;;;;;;;;;;;;;;5.68;100.00;94871.53;10601970;27;5144;-66
2023/12/31 17:02:23;;;;;;;;;;;;;;;5.63;100.00;94881.38;10589512;27;2019;-70
2023/12/31 17:07:31;;;;;;;;;;;;;;;5.57;100.00;94895.78;10603097;27;2019;-69
2023/12/31 17:12:35;;;;;;;;;;;;;;;5.31;100.00;94903.69;10604007;27;2012;-71
2023/12/31 17:17:39;;;;;;;;;;;;;;;5.06;100.00;94909.72;10604610;27;2020;-65
2023/12/31 17:22:47;;;;;;;;;;;;;;;4.94;100.00;94914.47;10605810;27;2029;-64
2023/12/31 17:27:51;;;;;;;;;;;;;;;4.69;100.00;94923.09;10603377;27;2013;-65
2023/12/31 17:32:54;;;;;;;;;;;;;;;4.54;100.00;94923.81;10588355;27;1954;-64
2023/12/31 17:38:12;;;;;;;;;;;;;;;4.51;100.00;94928.84;10569571;27;2074;-66
2023/12/31 17:43:22;;;;;;;;;;;;;;;4.46;100.00;94942.13;10591180;27;1922;-67
2023/12/31 17:48:27;;;;;;;;;;;;;;;4.39;100.00;94946.84;10581005;27;2848;-74
2023/12/31 17:53:33;;;;;;;;;;;;;;;4.37;100.00;94951.63;10601545;27;2007;-69
2023/12/31 17:58:38;;;;;;;;;;;;;;;4.29;100.00;94953.69;10599389;27;6021;-72
2023/12/31 18:03:44;;;;;;;;;;;;;;;4.25;100.00;94965.91;10580764;27;2101;-71
2023/12/31 18:08:50;;;;;;;;;;;;;;;4.31;100.00;94964.88;10598695;27;1997;-67
2023/12/31 18:13:52;;;;;;;;;;;;;;;4.27;100.00;94973.66;10584490;27;1912;-65
2023/12/31 18:18:56;;;;;;;;;;;;;;;4.28;100.00;94975.25;10596631;27;2099;-65
2023/12/31 18:23:59;;;;;;;;;;;;;;;4.28;100.00;94984.03;10578879;27;2027;-66
2023/12/31 18:29:06;;;;;;;;;;;;;;;4.22;100.00;94992.22;10594630;27;2494;-66
2023/12/31 18:34:12;;;;;;;;;;;;;;;4.20;100.00;95003.13;10593225;27;1897;-69
2023/12/31 18:39:18;;;;;;;;;;;;;;;4.20;100.00;95007.59;10594712;27;1906;-65
2023/12/31 18:44:27;;;;;;;;;;;;;;;4.15;100.00;95013.72;10585021;27;1972;-65
2023/12/31 18:49:34;;;;;;;;;;;;;;;4.11;100.00;95007.28;10590605;27;2122;-68
2023/12/31 18:54:43;;;;;;;;;;;;;;;4.07;100.00;95007.00;10598026;27;2149;-66
2023/12/31 18:59:47;;;;;;;;;;;;;;;4.05;100.00;95003.75;10604938;27;2034;-70
2023/12/31 19:04:51;;;;;;;;;;;;;;;4.04;100.00;94996.84;10610296;27;2116;-66
2023/12/31 19:09:57;;;;;;;;;;;;;;;4.08;100.00;94991.84;10586660;27;2801;-72
2023/12/31 19:15:06;;;;;;;;;;;;;;;4.02;100.00;94992.84;10583431;27;1930;-66
2023/12/31 19:20:10;;;;;;;;;;;;;;;3.99;100.00;94991.47;10594527;27;2051;-66
2023/12/31 19:25:22;;;;;;;;;;;;;;;4.02;100.00;94998.97;10584540;27;2046;-67
2023/12/31 19:30:26;;;;;;;;;;;;;;;4.00;100.00;95005.56;10561080;27;2020;-69
2023/12/31 19:35:32;;;;;;;;;;;;;;;3.98;100.00;95011.13;10603994;27;1938;-66
2023/12/31 19:40:36;;;;;;;;;;;;;;;4.03;100.00;95021.03;10586538;27;1961;-68
2023/12/31 19:45:48;;;;;;;;;;;;;;;4.07;100.00;95022.13;10596204;27;2114;-66
2023/12/31 19:50:51;;;;;;;;;;;;;;;4.00;100.00;95011.69;10568025;27;2042;-66
2023/12/31 19:55:56;;;;;;;;;;;;;;;4.08;100.00;95007.78;10587038;27;5124;-66
2023/12/31 20:01:01;;;;;;;;;;;;;;;4.10;100.00;95011.00;10582868;27;2080;-66
2023/12/31 20:06:11;;;;;;;;;;;;;;;4.07;100.00;95006.16;10592392;27;1901;-66
2023/12/31 20:11:17;;;;;;;;;;;;;;;4.05;100.00;94976.38;10617283;27;2059;-66
2023/12/31 20:16:21;;;;;;;;;;;;;;;4.01;100.00;94975.28;10592287;27;1922;-64
2023/12/31 20:21:26;;;;;;;;;;;;;;;4.05;100.00;94992.31;10592893;27;1954;-65
2023/12/31 20:26:34;;;;;;;;;;;;;;;4.01;100.00;95001.88;10600391;27;2102;-66
2023/12/31 20:31:44;;;;;;;;;;;;;;;4.00;100.00;95017.00;10600448;27;2102;-66
2023/12/31 20:36:49;;;;;;;;;;;;;;;3.97;100.00;95011.41;10594978;27;2556;-72
2023/12/31 20:41:57;;;;;;;;;;;;;;;3.93;100.00;95020.91;10604514;27;1999;-74
2023/12/31 20:47:00;;;;;;;;;;;;;;;3.96;100.00;95029.22;10598394;27;1915;-68
2023/12/31 20:52:03;;;;;;;;;;;;;;;3.93;100.00;95010.28;10599977;27;2022;-66
2023/12/31 20:57:08;;;;;;;;;;;;;;;3.93;100.00;95015.59;10591688;27;5165;-68
2023/12/31 21:02:15;;;;;;;;;;;;;;;3.96;100.00;95004.47;10598737;27;1940;-67
2023/12/31 21:07:19;;;;;;;;;;;;;;;4.01;100.00;95007.19;10584152;27;1877;-65
2023/12/31 21:12:26;;;;;;;;;;;;;;;4.00;100.00;94990.41;10612453;27;2018;-65
2023/12/31 21:17:30;;;;;;;;;;;;;;;4.00;100.00;95006.34;10596456;27;2636;-66
2023/12/31 21:22:33;;;;;;;;;;;;;;;4.00;100.00;95010.88;10599911;27;2020;-66
2023/12/31 21:27:37;;;;;;;;;;;;;;;3.95;100.00;95013.50;10603391;27;2020;-66
2023/12/31 21:32:44;;;;;;;;;;;;;;;3.91;100.00;95018.50;10597376;27;2146;-75
2023/12/31 21:37:49;;;;;;;;;;;;;;;3.89;100.00;95014.50;10612904;27;1916;-66
2023/12/31 21:42:52;;;;;;;;;;;;;;;3.89;100.00;95014.50;10566476;27;2027;-66
2023/12/31 21:48:01;;;;;;;;;;;;;;;3.92;100.00;95006.81;10600768;27;2047;-65
2023/12/31 21:53:04;;;;;;;;;;;;;;;3.95;100.00;95008.19;10584692;27;1931;-65
2023/12/31 21:58:09;;;;;;;;;;;;;;;3.91;100.00;94999.91;10584839;27;5133;-64
2023/12/31 22:03:14;;;;;;;;;;;;;;;3.84;100.00;94993.97;10587762;27;2186;-65
2023/12/31 22:08:18;;;;;;;;;;;;;;;3.92;100.00;95009.47;10602542;27;2291;-65
2023/12/31 22:13:24;;;;;;;;;;;;;;;3.88;100.00;95016.38;10601476;27;2111;-67
2023/12/31 22:18:33;;;;;;;;;;;;;;;3.90;100.00;95032.06;10586140;27;2008;-65
2023/12/31 22:23:39;;;;;;;;;;;;;;;3.94;100.00;95043.78;10599068;27;2262;-66
2023/12/31 22:28:46;;;;;;;;;;;;;;;3.89;100.00;95043.75;10599751;27;2043;-65
2023/12/31 22:33:52;;;;;;;;;;;;;;;3.84;100.00;95043.69;10598339;27;2012;-66
2023/12/31 22:39:07;;;;;;;;;;;;;;;3.80;100.00;95033.53;10603477;27;1960;-65
2023/12/31 22:44:36;;;;;;;;;;;;;;;3.88;100.00;95040.28;10591774;27;2819;-66
2023/12/31 22:49:41;;;;;;;;;;;;;;;3.86;100.00;95046.91;10587946;27;2406;-68
2023/12/31 22:54:45;;;;;;;;;;;;;;;3.92;100.00;95035.25;10583180;27;1973;-67
2023/12/31 22:59:50;;;;;;;;;;;;;;;3.94;100.00;95060.53;10581164;27;5085;-65
2023/12/31 23:04:53;;;;;;;;;;;;;;;3.92;100.00;95036.06;10592388;27;1924;-65
2023/12/31 23:09:59;;;;;;;;;;;;;;;3.88;100.00;95040.28;10600745;27;2063;-66
2023/12/31 23:15:03;;;;;;;;;;;;;;;3.85;100.00;95030.13;10590123;27;2254;-69
2023/12/31 23:20:07;;;;;;;;;;;;;;;3.79;100.00;95037.25;10604595;27;2090;-78
2023/12/31 23:25:09;;;;;;;;;;;;;;;3.79;100.00;95041.78;10597943;27;2621;-68
2023/12/31 23:30:16;;;;;;;;;;;;;;;3.77;100.00;95034.06;10599690;27;1929;-66
2023/12/31 23:35:20;;;;;;;;;;;;;;;3.78;100.00;95029.53;10595158;27;2094;-66
2023/12/31 23:40:25;;;;;;;;;;;;;;;3.72;100.00;95025.22;10585625;27;1897;-67
2023/12/31 23:45:36;;;;;;;;;;;;;;;3.71;100.00;95028.94;10604444;27;2023;-65
2023/12/31 23:50:42;;;;;;;;;;;;;;;3.70;100.00;95025.47;10587441;27;1963;-66
2023/12/31 23:55:50;;;;;;;;;;;;;;;3.72;100.00;95036.66;10601472;27;5109;-68
